Time;durP1;ratioP1;P1;durP2;ratioP2;P2;SDS_P1;SDS_P2;PMS_P1;PMS_P2;Temp;Humidity;BMP_temperature;BMP_pressure;BME280_temperature;BME280_humidity;BME280_pressure;Samples;Min_cycle;Max_cycle;Signal;HPM_P1;HPM_P2
2024/02/13 00:00:30;;;;;;;8.80;3.95;;;;;;;4.36;100.00;101024.75;4891936;29;20501;-71
2024/02/13 00:02:56;;;;;;;8.02;3.78;;;;;;;4.38;100.00;101030.66;4924991;29;20042;-71
2024/02/13 00:05:21;;;;;;;8.32;3.42;;;;;;;4.38;100.00;101033.28;4911427;29;20039;-71
2024/02/13 00:07:47;;;;;;;6.20;3.35;;;;;;;4.40;100.00;101036.53;4929678;29;21114;-74
2024/02/13 00:10:13;;;;;;;11.57;4.00;;;;;;;4.41;100.00;101034.72;4926936;29;20038;-70
2024/02/13 00:12:39;;;;;;;7.80;3.75;;;;;;;4.42;100.00;101037.13;4909671;29;20126;-70
2024/02/13 00:15:06;;;;;;;6.78;3.30;;;;;;;4.42;100.00;101045.09;4925083;29;20135;-71
2024/02/13 00:17:34;;;;;;;7.70;3.60;;;;;;;4.43;100.00;101041.41;4911526;29;20127;-70
2024/02/13 00:20:00;;;;;;;10.20;3.47;;;;;;;4.46;100.00;101048.91;4925683;29;20145;-70
2024/02/13 00:22:25;;;;;;;11.35;2.92;;;;;;;4.46;100.00;101051.56;4913547;29;20118;-70
2024/02/13 00:24:51;;;;;;;7.22;3.33;;;;;;;4.47;100.00;101055.84;4923935;29;20028;-70
2024/02/13 00:27:17;;;;;;;8.85;3.30;;;;;;;4.46;100.00;101056.06;4926425;29;20039;-70
2024/02/13 00:29:44;;;;;;;9.38;3.15;;;;;;;4.46;100.00;101062.16;4909007;29;20043;-71
2024/02/13 00:32:11;;;;;;;6.93;2.90;;;;;;;4.46;100.00;101070.13;4927002;29;20062;-71
2024/02/13 00:34:55;;;;;;;9.90;3.20;;;;;;;4.47;100.00;101062.97;4925715;29;20039;-70
2024/02/13 00:37:23;;;;;;;7.65;2.90;;;;;;;4.47;100.00;101073.59;4942686;28;20590;-70
2024/02/13 00:39:49;;;;;;;11.05;3.35;;;;;;;4.44;100.00;101072.19;4924151;29;20043;-73
2024/02/13 00:42:15;;;;;;;9.30;3.40;;;;;;;4.45;100.00;101080.97;4925536;29;20464;-70
2024/02/13 00:44:42;;;;;;;9.02;3.97;;;;;;;4.45;100.00;101080.97;4923129;29;20047;-70
2024/02/13 00:47:08;;;;;;;12.95;4.15;;;;;;;4.44;100.00;101082.81;4925343;29;20039;-70
2024/02/13 00:49:34;;;;;;;5.70;3.55;;;;;;;4.44;100.00;101090.75;4925898;29;20524;-69
2024/02/13 00:52:01;;;;;;;12.48;3.90;;;;;;;4.45;100.00;101081.78;4907160;29;20032;-70
2024/02/13 00:54:27;;;;;;;11.07;3.97;;;;;;;4.44;100.00;101088.09;4925722;29;20088;-70
2024/02/13 00:56:53;;;;;;;9.25;3.80;;;;;;;4.44;100.00;101090.75;4918673;29;20036;-70
2024/02/13 00:59:19;;;;;;;7.45;3.90;;;;;;;4.43;100.00;101094.44;4923775;29;20074;-70
2024/02/13 01:01:45;;;;;;;11.02;4.45;;;;;;;4.43;100.00;101094.44;4927880;29;20039;-71
2024/02/13 01:04:11;;;;;;;10.73;3.72;;;;;;;4.44;100.00;101098.72;4909164;29;20417;-70
2024/02/13 01:06:37;;;;;;;8.95;4.00;;;;;;;4.44;100.00;101104.03;4900405;29;20031;-71
2024/02/13 01:09:05;;;;;;;8.88;3.60;;;;;;;4.41;100.00;101107.13;4908985;29;20036;-70
2024/02/13 01:11:35;;;;;;;9.18;3.92;;;;;;;4.39;100.00;101109.16;4927607;29;20160;-73
2024/02/13 01:14:04;;;;;;;8.65;3.85;;;;;;;4.37;100.00;101114.69;4921366;29;20501;-70
2024/02/13 01:16:31;;;;;;;11.18;3.63;;;;;;;4.35;100.00;101108.00;4923276;29;20039;-71
2024/02/13 01:18:57;;;;;;;6.90;3.53;;;;;;;4.33;100.00;101112.69;4924325;29;20058;-71
2024/02/13 01:21:22;;;;;;;;;;;;;;;4.31;100.00;101122.72;4927129;29;20047;-71
2024/02/13 01:23:49;;;;;;;7.53;3.97;;;;;;;4.29;100.00;101116.81;4918560;29;20336;-71
2024/02/13 01:26:18;;;;;;;9.70;3.97;;;;;;;4.30;100.00;101124.56;4925069;29;20024;-71
2024/02/13 01:28:47;;;;;;;15.65;4.25;;;;;;;4.29;100.00;101125.59;4929925;28;20036;-72
2024/02/13 01:31:13;;;;;;;11.27;3.53;;;;;;;4.28;100.00;101128.47;4908242;29;20563;-71
2024/02/13 01:33:42;;;;;;;8.73;4.00;;;;;;;4.25;100.00;101134.19;4936305;28;20028;-72
2024/02/13 01:36:09;;;;;;;7.68;3.60;;;;;;;4.22;100.00;101134.63;4917344;29;20074;-73
2024/02/13 01:38:36;;;;;;;10.60;3.97;;;;;;;4.17;100.00;101134.47;4924485;29;20036;-72
2024/02/13 01:41:02;;;;;;;8.80;3.60;;;;;;;4.11;100.00;101130.84;4925014;29;20501;-72
2024/02/13 01:43:31;;;;;;;14.52;4.00;;;;;;;4.07;100.00;101133.13;4924606;29;20087;-72
2024/02/13 01:45:58;;;;;;;11.55;4.00;;;;;;;4.03;100.00;101131.13;4924829;29;20031;-72
2024/02/13 01:48:25;;;;;;;9.65;3.90;;;;;;;3.97;100.00;101126.69;4923915;29;20035;-70
2024/02/13 01:50:52;;;;;;;10.70;4.45;;;;;;;3.93;100.00;101122.84;4905077;29;20572;-72
2024/02/13 01:53:21;;;;;;;7.35;3.53;;;;;;;3.89;100.00;101130.41;4923127;29;20082;-71
2024/02/13 01:55:50;;;;;;;14.55;4.00;;;;;;;3.82;100.00;101129.66;4922901;29;20532;-74
2024/02/13 01:58:16;;;;;;;10.32;3.97;;;;;;;3.78;100.00;101144.34;4921778;29;20231;-73
2024/02/13 02:00:42;;;;;;;;;;;;;;;3.73;100.00;101142.38;4933071;28;20043;-73
2024/02/13 02:03:11;;;;;;;9.20;3.58;;;;;;;3.65;100.00;101141.78;4933537;28;19922;-73
2024/02/13 02:05:36;;;;;;;7.32;3.25;;;;;;;3.57;100.00;101142.84;4916030;29;20040;-73
2024/02/13 02:08:19;;;;;;;8.18;3.45;;;;;;;3.52;100.00;101145.31;4923310;29;20046;-73
2024/02/13 02:10:44;;;;;;;7.53;3.90;;;;;;;3.48;100.00;101139.66;4907086;29;20648;-72
2024/02/13 02:13:14;;;;;;;9.40;4.22;;;;;;;3.45;100.00;101145.38;4925187;29;20490;-73
2024/02/13 02:15:43;;;;;;;13.65;4.38;;;;;;;3.43;100.00;101149.25;4924994;29;20490;-72
2024/02/13 02:18:10;;;;;;;9.65;3.60;;;;;;;3.40;100.00;101150.50;4905507;29;20035;-72
2024/02/13 02:20:36;;;;;;;10.50;4.20;;;;;;;3.35;100.00;101154.81;4920842;29;20528;-71
2024/02/13 02:23:02;;;;;;;9.70;3.72;;;;;;;3.31;100.00;101162.34;4936311;28;20043;-71
2024/02/13 02:25:29;;;;;;;11.40;3.80;;;;;;;3.29;100.00;101161.75;4907403;29;20027;-72
2024/02/13 02:28:18;;;;;;;9.70;4.22;;;;;;;3.24;100.00;101178.25;4922741;29;20135;-72
2024/02/13 02:30:54;;;;;;;9.30;4.22;;;;;;;3.28;100.00;101171.53;4925227;29;20057;-71
2024/02/13 02:33:21;;;;;;;8.45;3.95;;;;;;;3.35;100.00;101179.44;4926079;29;20134;-72
2024/02/13 02:35:48;;;;;;;16.45;4.30;;;;;;;3.38;100.00;101176.34;4925581;29;20421;-71
2024/02/13 02:38:14;;;;;;;11.98;3.90;;;;;;;3.44;100.00;101175.53;4923499;29;20158;-72
2024/02/13 02:40:40;;;;;;;;;;;;;;;3.49;100.00;101177.53;4927739;29;20048;-72
2024/02/13 02:43:06;;;;;;;7.43;3.42;;;;;;;3.50;100.00;101179.97;4930448;29;19929;-72
2024/02/13 02:45:32;;;;;;;7.72;3.30;;;;;;;3.51;100.00;101186.88;4925673;29;20028;-72
2024/02/13 02:47:58;;;;;;;7.80;2.85;;;;;;;3.51;100.00;101184.25;4925453;29;20051;-72
2024/02/13 02:50:24;;;;;;;6.40;2.90;;;;;;;3.53;100.00;101181.41;4916775;29;20036;-72
2024/02/13 02:52:51;;;;;;;7.82;3.90;;;;;;;3.52;100.00;101191.19;4926820;29;20031;-72
2024/02/13 02:55:18;;;;;;;7.10;2.90;;;;;;;3.55;100.00;101188.09;4925983;29;20035;-71
2024/02/13 02:57:44;;;;;;;7.05;3.33;;;;;;;3.55;100.00;101182.81;4933561;28;20035;-72
2024/02/13 03:00:14;;;;;;;7.63;2.83;;;;;;;3.58;100.00;101192.16;4923181;29;20139;-72
2024/02/13 03:02:52;;;;;;;9.27;3.42;;;;;;;3.59;100.00;101177.06;4899513;29;20115;-71
2024/02/13 03:05:17;;;;;;;5.43;2.80;;;;;;;3.58;100.00;101196.63;4904160;29;20490;-71
2024/02/13 03:07:46;;;;;;;7.47;3.10;;;;;;;3.56;100.00;101196.84;4910947;29;20050;-72
2024/02/13 03:10:11;;;;;;;4.63;2.47;;;;;;;3.52;100.00;101193.84;4928262;29;20035;-73
2024/02/13 03:12:38;;;;;;;10.95;3.97;;;;;;;3.48;100.00;101200.56;4925273;29;20115;-73
2024/02/13 03:15:04;;;;;;;5.25;2.33;;;;;;;3.49;100.00;101194.25;4927358;29;20123;-71
2024/02/13 03:17:31;;;;;;;6.63;2.65;;;;;;;3.47;100.00;101204.25;4928573;29;20039;-70
2024/02/13 03:19:57;;;;;;;9.75;3.35;;;;;;;3.48;100.00;101200.56;4925459;29;20043;-71
2024/02/13 03:22:25;;;;;;;11.55;3.28;;;;;;;3.55;100.00;101198.69;4934697;29;20061;-71
2024/02/13 03:24:51;;;;;;;7.00;3.20;;;;;;;3.60;100.00;101211.31;4925756;29;20040;-70
2024/02/13 03:27:17;;;;;;;8.82;3.28;;;;;;;3.67;100.00;101205.97;4938322;28;20039;-72
2024/02/13 03:29:58;;;;;;;9.35;3.25;;;;;;;3.72;100.00;101204.28;4928599;29;20039;-71
2024/02/13 03:32:25;;;;;;;8.85;3.08;;;;;;;3.75;100.00;101203.88;4929419;29;20050;-71
2024/02/13 03:34:51;;;;;;;7.82;3.38;;;;;;;3.80;100.00;101216.50;4931417;29;20409;-71
2024/02/13 03:37:16;;;;;;;11.10;3.53;;;;;;;3.84;100.00;101212.38;4894509;29;20071;-71
2024/02/13 03:39:42;;;;;;;5.78;2.95;;;;;;;3.85;100.00;101214.00;4943755;28;20417;-73
2024/02/13 03:42:09;;;;;;;8.85;3.40;;;;;;;3.86;100.00;101209.50;4929771;29;20466;-72
2024/02/13 03:44:37;;;;;;;8.63;3.47;;;;;;;3.88;100.00;101218.06;4929322;29;20492;-71
2024/02/13 03:47:05;;;;;;;10.75;3.53;;;;;;;3.90;100.00;101227.44;4927951;29;20039;-70
2024/02/13 03:49:32;;;;;;;9.50;3.22;;;;;;;3.91;100.00;101220.28;4927877;29;20449;-72
2024/02/13 03:51:59;;;;;;;13.23;4.07;;;;;;;3.92;100.00;101228.00;4928132;29;20071;-72
2024/02/13 03:54:25;;;;;;;5.97;3.30;;;;;;;3.91;100.00;101221.09;4933758;29;20769;-71
2024/02/13 03:56:51;;;;;;;8.07;3.58;;;;;;;3.91;100.00;101223.75;4934123;29;20039;-71
2024/02/13 03:59:16;;;;;;;8.95;3.33;;;;;;;3.90;100.00;101234.56;4927696;29;20031;-71
2024/02/13 04:01:43;;;;;;;11.27;3.40;;;;;;;3.93;100.00;101231.47;4934021;29;20043;-71
2024/02/13 04:04:09;;;;;;;9.27;3.47;;;;;;;3.93;100.00;101226.19;4936320;29;20040;-71
2024/02/13 04:06:35;;;;;;;9.40;3.80;;;;;;;3.93;100.00;101232.31;4935851;29;20027;-70
2024/02/13 04:09:07;;;;;;;9.05;3.92;;;;;;;3.95;100.00;101235.56;4899781;29;20536;-71
2024/02/13 04:11:33;;;;;;;7.75;3.00;;;;;;;3.94;100.00;101239.25;4909888;29;20038;-71
2024/02/13 04:13:58;;;;;;;8.65;3.60;;;;;;;3.93;100.00;101239.44;4931554;29;20035;-72
2024/02/13 04:16:24;;;;;;;10.43;3.50;;;;;;;3.91;100.00;101236.19;4937319;29;20027;-71
2024/02/13 04:18:53;;;;;;;11.40;4.70;;;;;;;3.94;100.00;101239.25;4910797;29;20043;-71
2024/02/13 04:21:20;;;;;;;11.85;4.53;;;;;;;3.94;100.00;101236.59;4935943;29;20047;-70
2024/02/13 04:23:46;;;;;;;;;;;;;;;3.94;100.00;101236.59;4913885;29;20055;-71
2024/02/13 04:26:12;;;;;;;10.90;4.80;;;;;;;3.93;100.00;101237.63;4925976;29;19997;-71
2024/02/13 04:28:40;;;;;;;10.02;4.40;;;;;;;3.91;100.00;101234.34;4923186;29;20043;-71
2024/02/13 04:31:07;;;;;;;9.52;4.63;;;;;;;3.89;100.00;101233.75;4905502;29;20040;-72
2024/02/13 04:33:32;;;;;;;9.32;4.70;;;;;;;3.87;100.00;101250.91;4911481;29;20042;-72
2024/02/13 04:35:58;;;;;;;14.85;6.00;;;;;;;3.85;100.00;101248.44;4923306;29;20043;-71
2024/02/13 04:38:25;;;;;;;10.63;5.35;;;;;;;3.85;100.00;101248.44;4929979;29;20384;-71
2024/02/13 04:40:50;;;;;;;10.77;5.60;;;;;;;3.85;100.00;101251.09;4924816;29;20087;-71
2024/02/13 04:43:26;;;;;;;12.38;5.97;;;;;;;3.87;100.00;101253.56;4930774;29;20440;-70
2024/02/13 04:45:52;;;;;;;12.27;6.18;;;;;;;3.82;100.00;101254.19;4908662;29;20118;-72
2024/02/13 04:48:18;;;;;;;12.70;5.85;;;;;;;3.81;100.00;101249.91;4927913;29;20116;-71
2024/02/13 04:50:44;;;;;;;13.75;6.38;;;;;;;3.80;100.00;101253.59;4928264;29;20034;-71
2024/02/13 04:53:09;;;;;;;15.88;6.47;;;;;;;3.76;100.00;101252.38;4910029;29;20050;-70
2024/02/13 04:55:35;;;;;;;12.85;5.47;;;;;;;3.73;100.00;101252.81;4915457;29;20445;-71
2024/02/13 04:58:07;;;;;;;13.25;6.50;;;;;;;3.70;100.00;101253.22;4927814;29;20047;-71
2024/02/13 05:00:36;;;;;;;;;;;;;;;3.65;100.00;101256.50;4932440;29;20206;-72
2024/02/13 05:03:16;;;;;;;13.70;6.60;;;;;;;3.63;100.00;101261.19;4928851;29;19974;-72
2024/02/13 05:08:27;;;;;;;14.93;6.88;;;;;;;3.56;100.00;101263.88;4930049;29;20598;-72
2024/02/13 05:10:53;;;;;;;16.05;6.70;;;;;;;3.53;100.00;101269.59;4931978;29;20032;-72
2024/02/13 05:13:19;;;;;;;11.02;6.05;;;;;;;3.49;100.00;101273.69;4934659;29;20051;-72
2024/02/13 05:15:46;;;;;;;15.85;6.70;;;;;;;3.45;100.00;101259.22;4909046;29;20043;-72
2024/02/13 05:18:13;;;;;;;13.68;6.85;;;;;;;3.42;100.00;101262.31;4923697;29;20118;-72
2024/02/13 05:20:39;;;;;;;14.55;7.05;;;;;;;3.38;100.00;101261.09;4920538;29;20036;-72
2024/02/13 05:23:10;;;;;;;13.13;6.80;;;;;;;3.35;100.00;101258.06;4926305;29;20049;-70
2024/02/13 05:25:36;;;;;;;14.05;6.70;;;;;;;3.32;100.00;101267.25;4901769;29;20031;-70
2024/02/13 05:28:02;;;;;;;12.02;7.20;;;;;;;3.28;100.00;101264.19;4923282;29;20032;-73
2024/02/13 05:30:28;;;;;;;14.35;6.88;;;;;;;3.26;100.00;101263.59;4924669;29;20047;-71
2024/02/13 05:32:53;;;;;;;14.65;7.65;;;;;;;3.21;100.00;101262.59;4926397;29;20038;-71
2024/02/13 05:35:19;;;;;;;15.93;7.30;;;;;;;3.19;100.00;101264.63;4909534;29;20039;-72
2024/02/13 05:37:45;;;;;;;17.88;7.72;;;;;;;3.17;100.00;101264.00;4937059;28;20071;-72
2024/02/13 05:40:11;;;;;;;13.75;7.32;;;;;;;3.11;100.00;101270.13;4927049;28;20175;-72
2024/02/13 05:42:38;;;;;;;14.07;7.65;;;;;;;3.11;100.00;101280.72;4913514;29;20050;-72
2024/02/13 05:45:05;;;;;;;15.07;8.38;;;;;;;3.10;100.00;101279.09;4919911;29;20060;-71
2024/02/13 05:47:35;;;;;;;15.43;7.35;;;;;;;3.09;100.00;101286.22;4906766;29;20042;-71
2024/02/13 05:50:03;;;;;;;20.55;8.38;;;;;;;3.09;100.00;101288.88;4925306;29;20118;-72
2024/02/13 05:52:30;;;;;;;17.77;7.97;;;;;;;3.08;100.00;101281.13;4912123;29;20035;-72
2024/02/13 05:54:56;;;;;;;19.50;8.00;;;;;;;3.07;100.00;101287.44;4926593;29;20110;-71
2024/02/13 05:57:22;;;;;;;13.38;7.13;;;;;;;3.04;100.00;101288.66;4926314;29;20032;-72
2024/02/13 05:59:47;;;;;;;16.77;7.40;;;;;;;3.04;100.00;101286.00;4907502;29;20132;-71
2024/02/13 06:02:13;;;;;;;15.77;8.75;;;;;;;3.04;100.00;101296.59;4922503;29;20039;-72
2024/02/13 06:04:41;;;;;;;14.68;8.20;;;;;;;3.03;100.00;101289.69;4929461;29;20078;-72
2024/02/13 06:07:08;;;;;;;15.30;9.07;;;;;;;3.04;100.00;101295.78;4944524;28;20035;-72
2024/02/13 06:09:34;;;;;;;15.25;8.27;;;;;;;3.05;100.00;101303.53;4936565;29;20050;-72
2024/02/13 06:12:00;;;;;;;22.67;9.23;;;;;;;3.04;100.00;101304.53;4928781;28;20429;-72
2024/02/13 06:14:25;;;;;;;17.20;8.90;;;;;;;3.06;100.00;101301.72;4926718;29;20040;-72
2024/02/13 06:16:51;;;;;;;16.77;8.43;;;;;;;3.06;100.00;101296.41;4941312;28;20046;-72
2024/02/13 06:19:17;;;;;;;17.65;8.90;;;;;;;3.04;100.00;101301.88;4906513;29;20038;-72
2024/02/13 06:21:42;;;;;;;23.98;9.20;;;;;;;3.04;100.00;101307.19;4925633;29;20039;-72
2024/02/13 06:24:08;;;;;;;19.25;9.57;;;;;;;3.05;100.00;101298.25;4909225;29;20548;-72
2024/02/13 06:26:37;;;;;;;16.27;9.05;;;;;;;3.07;100.00;101314.72;4924587;29;20027;-72
2024/02/13 06:29:06;;;;;;;18.83;9.35;;;;;;;3.08;100.00;101313.72;4908874;29;20043;-71
2024/02/13 06:31:32;;;;;;;13.77;8.00;;;;;;;3.07;100.00;101319.22;4922784;29;20036;-72
2024/02/13 06:33:59;;;;;;;16.75;9.45;;;;;;;3.06;100.00;101310.47;4905861;29;20043;-72
2024/02/13 06:36:26;;;;;;;16.83;9.70;;;;;;;3.08;100.00;101319.00;4905136;29;20166;-71
2024/02/13 06:38:52;;;;;;;18.83;10.10;;;;;;;3.09;100.00;101315.31;4925901;29;20126;-71
2024/02/13 06:41:18;;;;;;;16.80;9.88;;;;;;;3.11;100.00;101323.06;4907738;29;20103;-72
2024/02/13 06:43:44;;;;;;;20.70;9.30;;;;;;;3.11;100.00;101317.75;4909347;29;20040;-72
2024/02/13 06:46:11;;;;;;;20.02;10.32;;;;;;;3.13;100.00;101321.03;4918586;29;20044;-72
2024/02/13 06:48:39;;;;;;;21.65;10.32;;;;;;;3.14;100.00;101333.25;4924510;29;20050;-72
2024/02/13 06:51:04;;;;;;;16.88;9.05;;;;;;;3.15;100.00;101329.56;4917309;29;20050;-71
2024/02/13 06:53:30;;;;;;;18.52;10.05;;;;;;;3.15;100.00;101324.28;4928372;29;20044;-72
2024/02/13 06:55:56;;;;;;;20.35;9.85;;;;;;;3.15;100.00;101334.88;4940222;28;20035;-72
2024/02/13 06:58:21;;;;;;;18.15;10.10;;;;;;;3.12;100.00;101341.41;4926799;29;20051;-72
2024/02/13 07:00:47;;;;;;;22.25;10.10;;;;;;;3.10;100.00;101342.59;4943425;28;20067;-72
2024/02/13 07:03:13;;;;;;;21.05;10.35;;;;;;;3.10;100.00;101343.41;4929819;29;20073;-72
2024/02/13 07:05:38;;;;;;;23.13;10.23;;;;;;;3.08;100.00;101348.09;4898258;29;20036;-72
2024/02/13 07:08:04;;;;;;;22.88;10.02;;;;;;;3.07;100.00;101343.03;4928507;29;20040;-72
2024/02/13 07:10:30;;;;;;;21.27;10.07;;;;;;;3.07;100.00;101350.97;4926677;29;20592;-72
2024/02/13 07:13:06;;;;;;;22.23;11.05;;;;;;;3.09;100.00;101352.38;4912986;29;20044;-72
2024/02/13 07:15:32;;;;;;;20.63;10.20;;;;;;;3.08;100.00;101358.69;4928940;29;20043;-72
2024/02/13 07:17:58;;;;;;;25.77;11.93;;;;;;;3.08;100.00;101361.34;4927819;29;20082;-73
2024/02/13 07:20:23;;;;;;;20.95;12.20;;;;;;;3.09;100.00;101359.50;4926182;29;20122;-72
2024/02/13 07:22:49;;;;;;;22.27;12.10;;;;;;;3.08;100.00;101353.41;4934569;28;20198;-72
2024/02/13 07:25:15;;;;;;;22.65;11.13;;;;;;;3.09;100.00;101351.56;4912157;29;20054;-72
2024/02/13 07:27:40;;;;;;;23.50;11.60;;;;;;;3.11;100.00;101352.16;4911854;29;20188;-72
2024/02/13 07:30:08;;;;;;;21.58;11.68;;;;;;;3.13;100.00;101352.78;4919628;29;20054;-71
2024/02/13 07:32:34;;;;;;;24.45;12.38;;;;;;;3.17;100.00;101364.59;4930026;29;20401;-72
2024/02/13 07:35:03;;;;;;;;;;;;;;;3.20;100.00;101359.72;4913779;29;20476;-72
2024/02/13 07:37:34;;;;;;;22.10;11.80;;;;;;;3.23;100.00;101369.06;4930821;29;19925;-72
2024/02/13 07:40:00;;;;;;;25.83;13.88;;;;;;;3.27;100.00;101370.28;4927942;29;20552;-72
2024/02/13 07:42:30;;;;;;;27.08;13.98;;;;;;;3.33;100.00;101374.75;4930095;29;20047;-73
2024/02/13 07:44:57;;;;;;;22.40;13.50;;;;;;;3.40;100.00;101380.84;4927371;29;20031;-73
2024/02/13 07:47:25;;;;;;;25.02;12.88;;;;;;;3.45;100.00;101370.44;4929938;29;20031;-72
2024/02/13 07:50:00;;;;;;;24.77;13.48;;;;;;;3.51;100.00;101382.84;4912625;29;20046;-72
2024/02/13 07:52:25;;;;;;;20.65;13.00;;;;;;;3.61;100.00;101377.16;4914041;29;20114;-72
2024/02/13 07:54:51;;;;;;;24.50;13.60;;;;;;;3.66;100.00;101379.16;4932766;28;20137;-70
2024/02/13 07:57:17;;;;;;;25.65;14.40;;;;;;;3.75;100.00;101375.28;4933089;29;21076;-71
2024/02/13 07:59:43;;;;;;;26.75;14.32;;;;;;;3.83;100.00;101375.03;4919101;29;20449;-72
2024/02/13 08:02:10;;;;;;;24.77;13.63;;;;;;;3.90;100.00;101375.81;4929846;28;20557;-72
2024/02/13 08:04:39;;;;;;;20.70;12.30;;;;;;;3.97;100.00;101379.25;4900361;29;20126;-71
2024/02/13 08:07:07;;;;;;;24.15;14.15;;;;;;;4.00;100.00;101386.81;4928213;29;20741;-71
2024/02/13 08:09:33;;;;;;;22.95;13.23;;;;;;;4.02;100.00;101373.34;4903770;29;20045;-70
2024/02/13 08:12:02;;;;;;;25.20;13.30;;;;;;;4.04;100.00;101379.22;4929296;29;20023;-71
2024/02/13 08:14:28;;;;;;;22.77;12.02;;;;;;;4.05;100.00;101384.31;4915886;29;20039;-71
2024/02/13 08:16:54;;;;;;;20.95;12.13;;;;;;;4.08;100.00;101383.91;4927242;29;20050;-70
2024/02/13 08:19:20;;;;;;;21.83;12.13;;;;;;;4.08;100.00;101391.84;4932369;29;20047;-71
2024/02/13 08:21:45;;;;;;;21.88;13.18;;;;;;;4.09;100.00;101390.84;4931649;29;20039;-72
2024/02/13 08:24:11;;;;;;;23.45;12.45;;;;;;;4.09;100.00;101390.03;4943527;28;20031;-71
2024/02/13 08:26:37;;;;;;;22.98;13.38;;;;;;;4.08;100.00;101399.81;4914668;29;20035;-71
2024/02/13 08:29:04;;;;;;;22.92;12.27;;;;;;;4.10;100.00;101400.41;4930701;29;20067;-71
2024/02/13 08:31:30;;;;;;;23.23;11.48;;;;;;;4.14;100.00;101397.34;4914261;29;20452;-70
2024/02/13 08:33:56;;;;;;;23.40;11.90;;;;;;;4.16;100.00;101396.09;4935206;29;20066;-71
2024/02/13 08:36:24;;;;;;;19.85;11.00;;;;;;;4.18;100.00;101399.34;4930188;29;20039;-72
2024/02/13 08:38:50;;;;;;;19.77;10.95;;;;;;;4.22;100.00;101399.75;4942074;28;20094;-72
2024/02/13 08:41:16;;;;;;;20.38;11.23;;;;;;;4.25;100.00;101394.81;4912620;29;20110;-71
2024/02/13 08:43:43;;;;;;;18.70;10.80;;;;;;;4.29;100.00;101396.03;4930623;29;20584;-72
2024/02/13 08:46:10;;;;;;;21.05;11.93;;;;;;;4.33;100.00;101401.72;4924079;29;20035;-72
2024/02/13 08:48:37;;;;;;;18.27;10.13;;;;;;;4.38;100.00;101402.72;4921425;29;20750;-72
2024/02/13 08:51:03;;;;;;;20.83;10.02;;;;;;;4.44;100.00;101394.94;4925713;29;20493;-71
2024/02/13 08:53:28;;;;;;;19.05;9.63;;;;;;;4.49;100.00;101389.81;4938425;28;20050;-71
2024/02/13 08:55:54;;;;;;;15.75;9.20;;;;;;;4.46;100.00;101406.16;4944596;29;20043;-72
2024/02/13 08:58:20;;;;;;;18.23;11.02;;;;;;;4.51;100.00;101403.66;4913603;29;20036;-72
2024/02/13 09:00:46;;;;;;;15.85;9.65;;;;;;;4.54;100.00;101404.06;4913645;29;20040;-72
2024/02/13 09:03:14;;;;;;;16.70;9.40;;;;;;;4.58;100.00;101397.31;4926794;29;20105;-72
2024/02/13 09:05:58;;;;;;;17.25;9.73;;;;;;;4.64;100.00;101399.09;4933766;29;20499;-72
2024/02/13 09:08:44;;;;;;;;;;;;;;;4.70;100.00;101401.94;4927571;29;20577;-72
2024/02/13 09:11:13;;;;;;;19.40;9.80;;;;;;;4.74;100.00;101403.13;4928236;29;19942;-72
2024/02/13 09:13:40;;;;;;;15.05;8.85;;;;;;;4.81;100.00;101409.19;4911239;29;20670;-72
2024/02/13 09:16:07;;;;;;;16.90;8.73;;;;;;;4.85;100.00;101419.16;4930436;29;20024;-72
2024/02/13 09:18:33;;;;;;;14.77;9.00;;;;;;;4.87;100.00;101409.13;4928057;29;20031;-72
2024/02/13 09:20:58;;;;;;;19.58;9.95;;;;;;;4.90;100.00;101413.22;4927644;29;20039;-72
2024/02/13 09:23:27;;;;;;;17.15;9.63;;;;;;;4.93;100.00;101415.44;4908168;29;20043;-72
2024/02/13 09:25:55;;;;;;;16.17;8.77;;;;;;;4.99;100.00;101419.06;4943736;28;20051;-71
2024/02/13 09:28:22;;;;;;;19.55;11.02;;;;;;;5.04;100.00;101424.56;4923926;29;20036;-72
2024/02/13 09:30:50;;;;;;;15.10;9.38;;;;;;;5.05;100.00;101408.41;4942684;28;20050;-72
2024/02/13 09:33:21;;;;;;;15.90;9.13;;;;;;;5.09;100.00;101428.19;4928575;29;20039;-72
2024/02/13 09:35:49;;;;;;;19.42;10.63;;;;;;;5.12;100.00;101422.44;4924904;29;20161;-72
2024/02/13 09:38:19;;;;;;;17.95;9.55;;;;;;;5.17;100.00;101425.25;4910276;29;20044;-72
2024/02/13 09:40:48;;;;;;;18.33;10.18;;;;;;;5.23;100.00;101434.22;4912314;29;20044;-71
2024/02/13 09:43:14;;;;;;;17.27;9.55;;;;;;;5.33;100.00;101439.81;4925263;29;20130;-72
2024/02/13 09:45:41;;;;;;;16.88;9.40;;;;;;;5.34;100.00;101430.81;4931940;29;20480;-72
2024/02/13 09:48:20;;;;;;;22.05;10.75;;;;;;;5.39;100.00;101435.50;4927107;29;20059;-72
2024/02/13 09:50:48;;;;;;;15.73;8.98;;;;;;;5.47;100.00;101441.34;4926991;29;20047;-72
2024/02/13 09:53:23;;;;;;;18.30;9.95;;;;;;;5.49;100.00;101443.78;4910881;29;20039;-72
2024/02/13 09:55:50;;;;;;;18.02;9.77;;;;;;;5.51;100.00;101452.34;4923591;29;20134;-72
2024/02/13 09:58:17;;;;;;;17.30;10.20;;;;;;;5.52;100.00;101446.00;4927874;29;20027;-71
2024/02/13 10:00:43;;;;;;;17.10;9.23;;;;;;;5.51;100.00;101449.69;4931751;29;20039;-72
2024/02/13 10:03:11;;;;;;;18.73;9.23;;;;;;;5.55;100.00;101453.53;4910703;29;20063;-72
2024/02/13 10:05:37;;;;;;;14.05;8.02;;;;;;;5.55;100.00;101458.84;4929785;29;20056;-72
2024/02/13 10:08:04;;;;;;;21.65;9.48;;;;;;;5.57;100.00;101461.28;4928220;29;20043;-72
2024/02/13 10:10:30;;;;;;;18.83;9.35;;;;;;;5.56;100.00;101463.13;4926818;29;20043;-72
2024/02/13 10:13:00;;;;;;;14.15;7.97;;;;;;;5.60;100.00;101461.66;4928167;29;20456;-72
2024/02/13 10:15:46;;;;;;;14.85;8.07;;;;;;;5.64;100.00;101465.50;4908936;29;20043;-72
2024/02/13 10:18:13;;;;;;;14.38;8.18;;;;;;;5.70;100.00;101461.97;4927019;29;20048;-72
2024/02/13 10:20:43;;;;;;;13.77;9.20;;;;;;;5.69;100.00;101465.69;4927869;29;20031;-72
2024/02/13 10:23:17;;;;;;;14.05;8.25;;;;;;;5.70;100.00;101461.16;4927347;29;20067;-72
2024/02/13 10:25:43;;;;;;;16.52;8.93;;;;;;;5.71;100.00;101462.78;4925576;29;20043;-72
2024/02/13 10:28:11;;;;;;;;;;;;;;;5.72;100.00;101459.09;4928213;29;20090;-72
2024/02/13 10:30:38;;;;;;;16.45;8.82;;;;;;;5.71;100.00;101463.59;4922097;29;19922;-72
2024/02/13 10:33:06;;;;;;;18.88;8.70;;;;;;;5.73;100.00;101466.03;4926029;29;20039;-72
2024/02/13 10:35:32;;;;;;;16.90;8.60;;;;;;;5.77;100.00;101472.56;4921262;29;20520;-72
2024/02/13 10:37:58;;;;;;;;;;;;;;;5.80;100.00;101480.06;4912484;29;20035;-72
2024/02/13 10:40:26;;;;;;;21.23;10.00;;;;;;;5.86;100.00;101478.38;4908396;29;20392;-72
2024/02/13 10:42:56;;;;;;;16.23;8.93;;;;;;;5.90;100.00;101474.25;4921918;29;20043;-72
2024/02/13 10:45:24;;;;;;;17.15;8.75;;;;;;;5.95;100.00;101472.56;4928377;29;20034;-72
2024/02/13 10:48:02;;;;;;;16.70;8.90;;;;;;;5.97;100.00;101472.38;4907911;29;20397;-71
2024/02/13 10:50:28;;;;;;;17.77;9.30;;;;;;;6.00;100.00;101479.91;4906930;29;21528;-72
2024/02/13 10:52:54;;;;;;;19.23;10.30;;;;;;;6.08;100.00;101474.28;4918143;29;20047;-72
2024/02/13 10:55:24;;;;;;;15.15;9.52;;;;;;;6.10;100.00;101477.56;4924582;29;20040;-72
2024/02/13 10:57:51;;;;;;;15.93;9.50;;;;;;;6.15;100.00;101468.88;4893428;29;20119;-72
2024/02/13 11:00:20;;;;;;;17.77;8.70;;;;;;;6.23;100.00;101469.44;4927565;29;20039;-72
2024/02/13 11:02:51;;;;;;;17.20;8.45;;;;;;;6.39;100.00;101464.53;4911362;29;20051;-72
2024/02/13 11:05:18;;;;;;;16.35;9.35;;;;;;;6.52;100.00;101464.34;4924065;29;20111;-72
2024/02/13 11:07:45;;;;;;;18.02;9.40;;;;;;;6.61;100.00;101462.19;4927897;29;20035;-71
2024/02/13 11:10:12;;;;;;;17.55;8.82;;;;;;;6.69;100.00;101464.53;4927378;29;20054;-72
2024/02/13 11:12:39;;;;;;;17.92;9.18;;;;;;;6.82;100.00;101470.47;4932270;29;20040;-72
2024/02/13 11:15:18;;;;;;;13.93;8.30;;;;;;;6.84;100.00;101463.09;4928012;29;20043;-72
2024/02/13 11:17:57;;;;;;;14.40;8.85;;;;;;;6.80;100.00;101466.44;4927495;29;20421;-71
2024/02/13 11:20:27;;;;;;;19.88;9.38;;;;;;;6.74;100.00;101460.16;4909761;29;20046;-72
2024/02/13 11:23:15;;;;;;;17.85;9.23;;;;;;;6.63;100.00;101466.22;4927164;29;20043;-71